Data for 10/23/2010

Time Sea-Level Adjusted Pressure Absolute Pressure Temperature Relative Humidity Dew Point   
(mb) (inHg) (mb) (inHg) (C) (F) (%) (C) (F)
00:05 1012 29.88 841 24.83 9.3 48.7 50 -0.6 30.9
00:10 1012 29.88 841 24.83 9.1 48.5 52 -0.2 31.7
00:15 1012 29.88 841 24.83 8.8 47.8 53 -0.2 31.6
00:20 1012 29.88 841 24.83 8.6 47.5 54 -0.1 31.7
00:25 1012 29.88 841 24.83 8.5 47.3 54 -0.1 31.7
00:30 1012 29.88 841 24.83 8.2 46.8 56 0.1 32.1
00:35 1012 29.88 841 24.83 8.1 46.6 53 -0.9 30.5
00:40 1012 29.88 841 24.83 8.7 47.6 51 -0.9 30.4
00:45 1012 29.88 841 24.83 8.7 47.7 51 -0.8 30.6
00:50 1012 29.88 841 24.83 8.8 47.8 52 -0.6 30.9
00:55 1012 29.88 841 24.83 8.7 47.7 51 -0.7 30.7
01:00 1012 29.88 841 24.83 8.6 47.6 52 -0.5 31.1
01:05 1012 29.88 841 24.83 8.5 47.2 53 -0.5 31.1
01:10 1012 29.88 841 24.83 8.2 46.8 54 -0.6 31
01:15 1012 29.88 841 24.83 8.3 46.9 52 -0.8 30.5
01:20 1012 29.88 841 24.83 8.6 47.5 52 -0.7 30.7
01:25 1012 29.88 841 24.83 8.6 47.4 52 -0.8 30.5
01:30 1012 29.88 841 24.83 8.7 47.7 52 -0.7 30.8
01:35 1012 29.88 841 24.83 8.6 47.5 52 -0.8 30.6
01:40 1012 29.88 841 24.83 8.7 47.7 51 -0.8 30.5
01:45 1012 29.88 841 24.83 8.8 47.8 51 -0.7 30.7
01:50 1012 29.88 841 24.83 8.9 47.9 51 -0.6 30.9
01:55 1012 29.88 841 24.83 8.8 47.8 52 -0.6 30.9
02:00 1012 29.88 841 24.83 8.8 47.8 52 -0.6 30.9
02:05 1012 29.88 841 24.83 8.7 47.7 51 -0.7 30.7
02:10 1012 29.88 841 24.83 8.8 47.8 51 -0.8 30.6
02:15 1012 29.88 841 24.83 8.7 47.6 52 -0.6 30.9
02:20 1012 29.88 841 24.83 8.6 47.5 52 -0.6 30.9
02:25 1012 29.88 841 24.83 8.5 47.3 52 -0.7 30.8
02:30 1012 29.88 841 24.83 8.6 47.4 52 -0.7 30.8
02:35 1012 29.88 841 24.83 8.6 47.5 53 -0.5 31.1
02:40 1012 29.88 841 24.83 8.6 47.4 53 -0.5 31
02:45 1012 29.88 841 24.83 8.6 47.5 52 -0.6 30.9
02:50 1012 29.88 841 24.83 8.8 47.8 51 -0.8 30.6
02:55 1012 29.88 841 24.83 9 48.2 49 -1.2 29.8
03:00 1012 29.88 841 24.83 9.3 48.7 49 -0.8 30.6
03:05 1012 29.88 841 24.83 9.3 48.7 49 -0.7 30.7
03:10 1012 29.88 841 24.83 9.3 48.8 48 -1.1 30.1
03:15 1012 29.88 841 24.83 9.4 48.8 49 -0.7 30.7
03:20 1012 29.88 841 24.83 9.1 48.4 51 -0.4 31.2
03:25 1012 29.88 841 24.83 8.7 47.7 53 -0.3 31.5
03:30 1012 29.88 841 24.83 8.4 47.1 54 -0.2 31.6
03:35 1012 29.88 841 24.83 8.5 47.2 54 -0.2 31.7
03:40 1012 29.88 841 24.83 8.2 46.8 57 0.1 32.2
03:45 1012 29.88 841 24.83 7.8 46 58 0.1 32.2
03:50 1012 29.88 841 24.83 7.7 45.8 57 -0.3 31.4
03:55 1012 29.88 841 24.83 7.9 46.3 54 -0.8 30.5
04:00 1012 29.88 841 24.83 8.6 47.5 52 -0.7 30.8
04:05 1012 29.88 841 24.83 8.8 47.8 52 -0.6 31
04:10 1012 29.88 841 24.83 8.7 47.7 52 -0.4 31.2
04:15 1012 29.88 841 24.83 8.7 47.6 52 -0.6 31
04:20 1012 29.88 841 24.83 8.5 47.4 53 -0.5 31.1
04:25 1012 29.88 841 24.83 8.4 47.2 53 -0.5 31.2
04:30 1012 29.88 841 24.83 8.2 46.8 55 -0.4 31.4
04:35 1012 29.88 841 24.83 8.1 46.5 56 -0.2 31.6
04:40 1012 29.88 841 24.83 7.8 46.1 58 -0 32
04:45 1012 29.88 841 24.83 7.5 45.5 58 -0.1 31.8
04:50 1012 29.88 841 24.83 7.6 45.6 58 -0.2 31.7
04:55 1012 29.88 841 24.83 7.9 46.3 54 -0.8 30.5
05:00 1012 29.88 841 24.83 8 46.3 56 -0.2 31.6
05:05 1012 29.88 841 24.83 7.9 46.2 55 -0.6 30.8
05:10 1012 29.88 841 24.83 8.1 46.6 56 -0.2 31.7
05:15 1012 29.88 841 24.83 8.2 46.7 51 -1.3 29.7
05:20 1012 29.88 841 24.83 8.9 48 49 -1.3 29.7
05:25 1012 29.88 841 24.83 8.9 48 50 -1 30.1
05:30 1012 29.88 841 24.83 8.6 47.5 51 -0.8 30.5
05:35 1012 29.88 841 24.83 8.3 47 54 -0.4 31.3
05:40 1012 29.88 841 24.83 7.8 46 55 -0.6 30.9
05:45 1012 29.88 841 24.83 7.7 45.9 55 -0.8 30.6
05:50 1012 29.88 841 24.83 7.8 46 55 -0.7 30.7
05:55 1012 29.88 841 24.83 7.9 46.1 55 -0.7 30.7
06:00 1012 29.88 841 24.83 7.7 45.8 56 -0.5 31.1
06:05 1012 29.88 841 24.83 7.7 45.9 56 -0.5 31.1
06:10 1012 29.88 841 24.83 7.6 45.7 55 -0.8 30.6
06:15 1012 29.88 841 24.83 7.9 46.2 55 -0.5 31.2
06:20 1012 29.88 841 24.83 7.8 46 55 -0.6 30.9
06:25 1012 29.88 841 24.83 7.4 45.4 60 0.2 32.4
06:30 1012 29.88 841 24.83 6.6 43.9 63 0.1 32.2
06:35 1012 29.88 841 24.83 6.2 43.1 64 -0.1 31.8
06:40 1012 29.88 841 24.83 6 42.8 63 -0.5 31.1
06:45 1012 29.88 841 24.83 6.2 43.1 64 -0.1 31.9
06:50 1012 29.88 841 24.83 6 42.8 65 -0.1 31.8
06:55 1012 29.88 841 24.83 5.9 42.5 64 -0.3 31.4
07:00 1012 29.88 841 24.83 5.9 42.6 66 -0 31.9
07:05 1012 29.88 841 24.83 5.6 42.1 67 0.1 32.2
07:10 1012 29.88 841 24.83 5.3 41.5 67 -0.4 31.4
07:15 1012 29.88 841 24.83 5.5 41.9 65 -0.5 31.1
07:20 1012 29.88 841 24.83 6.2 43.2 63 -0.2 31.6
07:25 1012 29.88 841 24.83 6 42.8 63 -0.5 31.1
07:30 1012 29.88 841 24.83 6.1 42.9 64 -0.2 31.6
07:35 1012 29.88 841 24.83 5.8 42.4 65 -0.4 31.4
07:40 1012 29.88 841 24.83 5.9 42.7 62 -0.9 30.4
07:45 1012 29.88 841 24.83 6.4 43.5 61 -0.5 31.1
07:50 1012 29.88 841 24.83 6.2 43.2 64 -0.2 31.7
07:55 1012 29.88 841 24.83 6 42.7 65 -0.2 31.7
08:00 1012 29.88 841 24.83 5.8 42.4 65 -0.2 31.7
08:05 1012 29.88 841 24.83 5.6 42.1 65 -0.3 31.4
08:10 1012 29.88 841 24.83 5.5 41.8 67 -0.1 31.8
08:15 1012 29.88 841 24.83 5.1 41.2 68 -0.2 31.6
08:20 1012 29.88 841 24.83 4.8 40.7 70 -0.2 31.7
08:25 1012 29.88 841 24.83 4.5 40.1 71 -0.4 31.4
08:30 1012 29.88 841 24.83 5 40.9 65 -1.1 30.1
08:35 1012 29.88 841 24.83 5.7 42.3 64 -0.6 30.8
08:40 1012 29.88 841 24.83 5.6 42.1 64 -0.6 30.9
08:45 1012 29.88 841 24.83 5.6 42 64 -0.7 30.7
08:50 1012 29.88 841 24.83 5.6 42.1 64 -0.8 30.6
08:55 1012 29.88 841 24.83 5.8 42.5 62 -0.9 30.4
09:00 1012 29.88 842 24.86 5.9 42.6 62 -0.8 30.5
09:05 1012 29.88 841 24.83 6 42.8 62 -0.8 30.5
09:10 1012 29.88 841 24.83 6.1 43.1 61 -0.9 30.4
09:15 1012 29.88 841 24.83 6.3 43.3 60 -0.9 30.4
09:20 1012 29.88 842 24.86 6.4 43.6 59 -0.9 30.4
09:25 1012 29.88 842 24.86 6.5 43.8 59 -0.8 30.6
09:30 1012 29.88 842 24.86 6.8 44.2 58 -0.9 30.3
09:35 1012 29.88 842 24.86 7.1 44.8 59 -0.4 31.3
09:40 1012 29.88 842 24.86 6.9 44.5 60 -0.4 31.3
09:45 1012 29.88 842 24.86 7 44.5 60 -0.3 31.4
09:50 1013 29.91 842 24.86 7.2 44.9 60 -0.1 31.8
09:55 1013 29.91 842 24.86 7.3 45.2 60 -0 32
10:00 1012 29.88 842 24.86 7.2 44.9 59 -0.3 31.5
10:05 1012 29.88 842 24.86 7.4 45.2 58 -0.4 31.3
10:10 1013 29.91 842 24.86 7.6 45.6 57 -0.4 31.3
10:15 1013 29.91 842 24.86 8.2 46.7 54 -0.6 30.9
10:20 1013 29.91 842 24.86 8.8 47.8 52 -0.4 31.2
10:25 1013 29.91 842 24.86 9.3 48.8 51 -0.4 31.3
10:30 1013 29.91 842 24.86 9.5 49.1 49 -0.5 31.1
10:35 1013 29.91 842 24.86 9.9 49.7 48 -0.6 31
10:40 1013 29.91 842 24.86 10.2 50.3 48 -0.3 31.4
10:45 1013 29.91 842 24.86 10.9 51.6 47 0 32
10:50 1013 29.91 842 24.86 11.3 52.3 42 -0.9 30.3
10:55 1013 29.91 842 24.86 11.6 52.9 43 -0.6 30.9
11:00 1013 29.91 842 24.86 11.8 53.3 41 -1 30.1
11:05 1013 29.91 842 24.86 12.2 54 40 -1 30.2
11:10 1012 29.88 842 24.86 12.6 54.6 39 -1.1 30
11:15 1012 29.88 842 24.86 12.9 55.2 39 -0.6 30.9
11:20 1012 29.88 842 24.86 12.1 53.8 40 -1 30.2
11:25 1012 29.88 841 24.83 12 53.6 42 -0.4 31.3
11:30 1012 29.88 841 24.83 12.2 54 39 -1.2 29.8
11:35 1012 29.88 841 24.83 12 53.5 42 -0.6 31
11:40 1012 29.88 841 24.83 12.1 53.8 40 -1.2 29.9
11:45 1012 29.88 841 24.83 11.9 53.4 40 -1.2 29.9
11:50 1012 29.88 841 24.83 12.8 55 38 -1 30.2
11:55 1012 29.88 841 24.83 13.4 56.2 39 -0.3 31.5
12:00 1012 29.88 841 24.83 14 57.2 36 -0.7 30.7
12:05 1012 29.88 841 24.83 14.6 58.3 35 -0.8 30.6
12:10 1012 29.88 841 24.83 14.2 57.6 36 -0.4 31.2
12:15 1012 29.88 841 24.83 14.3 57.7 34 -1.4 29.5
12:20 1012 29.88 841 24.83 14.5 58.1 33 -1.4 29.4
12:25 1012 29.88 841 24.83 14.8 58.7 33 -1.1 30.1
12:30 1012 29.88 841 24.83 15.3 59.5 34 -0.3 31.5
12:35 1012 29.88 841 24.83 14.6 58.2 36 -0.1 31.8
12:40 1012 29.88 841 24.83 13.6 56.4 38 -0.3 31.4
12:45 1012 29.88 841 24.83 14.4 57.9 34 -1 30.1
12:50 1012 29.88 841 24.83 15.1 59.1 33 -1 30.3
12:55 1012 29.88 841 24.83 15.3 59.5 34 -0.4 31.3
13:00 1012 29.88 841 24.83 15.6 60 34 -0.1 31.8
13:05 1012 29.88 841 24.83 15.1 59.2 36 0.3 32.6
13:10 1012 29.88 841 24.83 14 57.1 36 -0.8 30.5
13:15 1012 29.88 841 24.83 14.8 58.7 34 -0.8 30.6
13:20 1012 29.88 841 24.83 14.7 58.5 35 -0.5 31.1
13:25 1012 29.88 841 24.83 15 59.1 35 -0.4 31.3
13:30 1012 29.88 841 24.83 15.2 59.3 34 -0.6 31
13:35 1012 29.88 841 24.83 14.3 57.8 35 -0.8 30.6
13:40 1012 29.88 841 24.83 14.9 58.8 33 -1.1 30
13:45 1012 29.88 841 24.83 14.7 58.4 35 -0.5 31
13:50 1012 29.88 841 24.83 14.7 58.4 33 -1.2 29.8
13:55 1012 29.88 841 24.83 15.7 60.2 32 -0.8 30.6
14:00 1011 29.85 841 24.83 16.1 61 32 -0.5 31.1
14:05 1011 29.85 841 24.83 16.3 61.4 32 -0.4 31.3
14:10 1011 29.85 841 24.83 16.6 61.8 30 -0.9 30.5
14:15 1011 29.85 841 24.83 16.5 61.6 29 -1.3 29.6
14:20 1011 29.85 841 24.83 15.8 60.4 32 -0.8 30.6
14:25 1011 29.85 840 24.81 15.6 60.1 31 -1.3 29.7
14:30 1011 29.85 840 24.81 15.6 60 31 -1.2 29.9
14:35 1011 29.85 840 24.81 16 60.8 30 -1.3 29.7
14:40 1011 29.85 840 24.81 16.5 61.6 29 -1.4 29.4
14:45 1011 29.85 840 24.81 15.6 60.1 32 -1.1 30
14:50 1011 29.85 840 24.81 15.3 59.6 30 -1.9 28.5
14:55 1011 29.85 840 24.81 15.9 60.7 30 -1.6 29.1
15:00 1011 29.85 840 24.81 16.6 62 29 -1.5 29.3
15:05 1011 29.85 840 24.81 16.6 61.8 29 -1.2 29.8
15:10 1011 29.85 840 24.81 16.3 61.3 30 -1.1 30
15:15 1011 29.85 840 24.81 16.4 61.5 30 -1.3 29.7
15:20 1011 29.85 840 24.81 16.1 61 31 -1.1 30
15:25 1011 29.85 840 24.81 15.9 60.6 32 -0.7 30.7
15:30 1011 29.85 840 24.81 15.7 60.3 31 -1.3 29.6
15:35 1011 29.85 840 24.81 15.8 60.4 31 -1.4 29.5
15:40 1011 29.85 840 24.81 15.5 59.9 32 -0.8 30.5
15:45 1011 29.85 840 24.81 14.9 58.7 32 -1.7 29
15:50 1011 29.85 840 24.81 14.8 58.6 31 -1.9 28.5
15:55 1011 29.85 840 24.81 15.2 59.4 32 -1.4 29.4
16:00 1011 29.85 840 24.81 14.5 58.1 32 -1.8 28.8
16:05 1011 29.85 840 24.81 14.2 57.6 33 -1.7 28.9
16:10 1011 29.85 840 24.81 14.2 57.5 33 -1.9 28.5
16:15 1011 29.85 840 24.81 14.6 58.3 33 -1.5 29.3
16:20 1011 29.85 840 24.81 14.1 57.4 34 -1.3 29.7
16:25 1011 29.85 840 24.81 14.2 57.6 33 -1.7 28.9
16:30 1011 29.85 840 24.81 14.4 57.9 33 -1.4 29.4
16:35 1011 29.85 840 24.81 14.6 58.2 33 -1.4 29.4
16:40 1011 29.85 840 24.81 14.7 58.5 33 -1.4 29.4
16:45 1011 29.85 840 24.81 14.7 58.5 33 -1.3 29.6
16:50 1011 29.85 840 24.81 14.3 57.7 34 -1.3 29.7
16:55 1011 29.85 840 24.81 14.1 57.3 34 -1.6 29.2
17:00 1011 29.85 841 24.83 14.1 57.4 34 -1.6 29.1
17:05 1011 29.85 841 24.83 14.1 57.4 39 0.4 32.8
17:10 1011 29.85 841 24.83 14 57.2 41 0.9 33.6
17:15 1011 29.85 841 24.83 13.8 56.9 39 0.2 32.4
17:20 1011 29.85 841 24.83 13.6 56.5 40 0.4 32.8
17:25 1011 29.85 841 24.83 13.6 56.4 40 0.3 32.6
17:30 1011 29.85 841 24.83 13.2 55.7 41 0.3 32.5
17:35 1011 29.85 841 24.83 13 55.4 43 0.7 33.2
17:40 1011 29.85 841 24.83 12.7 54.9 44 0.8 33.5
17:45 1011 29.85 841 24.83 12.6 54.7 44 0.6 33.1
17:50 1011 29.85 841 24.83 12.5 54.5 43 0.5 32.9
17:55 1011 29.85 841 24.83 12.6 54.6 44 0.7 33.3
18:00 1011 29.85 841 24.83 12.8 55 46 1.5 34.7
18:05 1011 29.85 841 24.83 12.7 54.9 46 1.5 34.7
18:10 1011 29.85 840 24.81 12.4 54.4 49 2.1 35.8
18:15 1011 29.85 841 24.83 12.1 53.8 48 1.4 34.5
18:20 1011 29.85 841 24.83 12 53.5 54 2.9 37.2
18:25 1011 29.85 841 24.83 12 53.5 48 1.3 34.4
18:30 1011 29.85 841 24.83 12.1 53.8 47 1.1 33.9
18:35 1011 29.85 841 24.83 12.3 54.1 47 1.3 34.3
18:40 1011 29.85 841 24.83 12.1 53.9 47 1.1 34
18:45 1011 29.85 841 24.83 12.1 53.7 47 1.3 34.3
18:50 1011 29.85 841 24.83 12.2 53.9 47 1.3 34.3
18:55 1011 29.85 841 24.83 11.9 53.3 54 3 37.4
19:00 1011 29.85 841 24.83 11.4 52.5 50 1.3 34.3
19:05 1011 29.85 841 24.83 11.2 52.1 51 1.5 34.7
19:10 1011 29.85 841 24.83 11.3 52.4 49 1.2 34.1
19:15 1011 29.85 841 24.83 11.2 52.2 51 1.5 34.6
19:20 1011 29.85 841 24.83 11.1 52 51 1.3 34.3
19:25 1012 29.88 841 24.83 11.1 51.9 52 1.6 34.8
19:30 1012 29.88 841 24.83 10.8 51.4 53 1.6 34.9
19:35 1012 29.88 841 24.83 10.7 51.3 53 1.6 34.9
19:40 1012 29.88 841 24.83 10.8 51.5 53 1.7 35.1
19:45 1012 29.88 841 24.83 10.6 51.1 54 1.8 35.2
19:50 1012 29.88 841 24.83 10.5 50.9 54 1.6 34.9
19:55 1012 29.88 841 24.83 10.3 50.6 55 1.7 35.1
20:00 1012 29.88 841 24.83 10.4 50.7 54 1.6 34.9
20:05 1012 29.88 841 24.83 10.6 51 55 1.9 35.4
20:10 1012 29.88 841 24.83 10.3 50.6 55 1.7 35
20:15 1012 29.88 841 24.83 10.2 50.3 54 1.3 34.4
20:20 1012 29.88 841 24.83 10.3 50.6 55 1.6 35
20:25 1012 29.88 841 24.83 10.5 50.9 53 1.5 34.6
20:30 1012 29.88 841 24.83 10.8 51.5 52 1.5 34.7
20:35 1012 29.88 841 24.83 10.9 51.6 53 1.6 35
20:40 1012 29.88 841 24.83 10.6 51 54 1.8 35.2
20:45 1012 29.88 841 24.83 10.2 50.3 55 1.6 34.9
20:50 1012 29.88 841 24.83 10 49.9 55 1.5 34.6
20:55 1012 29.88 841 24.83 9.9 49.9 56 1.6 34.8
21:00 1012 29.88 841 24.83 10.1 50.2 55 1.4 34.6
21:05 1012 29.88 841 24.83 10.3 50.5 54 1.4 34.6
21:10 1012 29.88 841 24.83 10.4 50.6 53 1.2 34.1
21:15 1012 29.88 841 24.83 10.4 50.7 53 1.3 34.4
21:20 1012 29.88 841 24.83 10.4 50.6 51 0.8 33.4
21:25 1012 29.88 841 24.83 10.4 50.8 53 1.3 34.3
21:30 1012 29.88 841 24.83 10.2 50.4 56 1.8 35.3
21:35 1012 29.88 841 24.83 9.7 49.5 56 1.4 34.5
21:40 1012 29.88 841 24.83 9.8 49.7 55 1.1 34.1
21:45 1012 29.88 841 24.83 10 50 53 1 33.8
21:50 1012 29.88 841 24.83 10 49.9 54 1.2 34.1
21:55 1012 29.88 841 24.83 9.9 49.9 54 1.1 33.9
22:00 1012 29.88 841 24.83 9.9 49.8 54 1.1 33.9
22:05 1012 29.88 841 24.83 10 50 53 0.9 33.6
22:10 1012 29.88 841 24.83 10.2 50.3 53 0.9 33.7
22:15 1012 29.88 841 24.83 10.3 50.6 51 0.7 33.2
22:20 1012 29.88 841 24.83 10.6 51.1 51 0.9 33.5
22:25 1012 29.88 841 24.83 10.7 51.2 53 1.7 35
22:30 1012 29.88 841 24.83 10.5 50.9 53 1.5 34.7
22:35 1012 29.88 841 24.83 10.4 50.6 56 2 35.6
22:40 1012 29.88 841 24.83 10.1 50.1 58 2.2 36
22:45 1012 29.88 841 24.83 9.9 49.8 58 2.1 35.9
22:50 1012 29.88 841 24.83 9.7 49.5 59 2.1 35.9
22:55 1012 29.88 841 24.83 9.5 49.1 60 2.1 35.8
23:00 1012 29.88 841 24.83 9.3 48.7 60 1.9 35.5
23:05 1012 29.88 841 24.83 9.1 48.4 60 1.9 35.4
23:10 1012 29.88 841 24.83 9.2 48.6 60 2 35.6
23:15 1012 29.88 841 24.83 9.1 48.4 63 2.5 36.5
23:20 1012 29.88 841 24.83 8.9 48.1 64 2.6 36.7
23:25 1012 29.88 841 24.83 9 48.2 63 2.4 36.3
23:30 1012 29.88 841 24.83 9.1 48.4 63 2.4 36.3
23:35 1012 29.88 841 24.83 9 48.3 63 2.4 36.3
23:40 1012 29.88 841 24.83 9 48.2 64 2.7 36.8
23:45 1012 29.88 841 24.83 8.7 47.7 68 3.3 37.9
23:50 1012 29.88 841 24.83 8.4 47.1 70 3.3 38
23:55 1012 29.88 841 24.83 8.2 46.7 71 3.2 37.7
24:00 1012 29.88 841 24.83 8.1 46.5 71 3.2 37.7